createdAt,value
2019-04-26T00:00:10.195Z,1.70
2019-04-26T00:01:10.013Z,3.70
2019-04-26T00:02:09.953Z,2.60
2019-04-26T00:03:10.309Z,2.40
2019-04-26T00:04:10.264Z,1.70
2019-04-26T00:05:10.214Z,2.10
2019-04-26T00:06:10.245Z,1.80
2019-04-26T00:07:10.421Z,1.70
2019-04-26T00:08:10.388Z,3.90
2019-04-26T00:09:09.567Z,2.70
2019-04-26T00:10:10.372Z,2.10
2019-04-26T00:11:09.646Z,3.00
2019-04-26T00:12:10.747Z,2.90
2019-04-26T00:13:09.820Z,2.10
2019-04-26T00:14:09.886Z,1.80
2019-04-26T00:15:10.087Z,1.90
2019-04-26T00:16:10.145Z,2.00
2019-04-26T00:17:09.258Z,2.20
2019-04-26T00:18:10.252Z,1.90
2019-04-26T00:19:09.423Z,2.20
2019-04-26T00:20:09.208Z,2.30
2019-04-26T00:21:09.627Z,2.20
2019-04-26T00:22:09.202Z,3.30
2019-04-26T00:23:10.629Z,2.90
2019-04-26T00:24:09.161Z,2.00
2019-04-26T00:25:09.955Z,3.30
2019-04-26T00:26:09.162Z,2.70
2019-04-26T00:27:09.170Z,2.90
2019-04-26T00:28:09.113Z,3.70
2019-04-26T00:29:09.098Z,2.00
2019-04-26T00:30:09.098Z,2.10
2019-04-26T00:31:09.076Z,2.10
2019-04-26T00:32:09.098Z,2.60
2019-04-26T00:33:09.074Z,2.20
2019-04-26T00:34:09.053Z,2.30
2019-04-26T00:35:09.033Z,2.50
2019-04-26T00:36:09.021Z,2.40
2019-04-26T00:37:09.043Z,2.20
2019-04-26T00:38:09.009Z,3.70
2019-04-26T00:39:09.028Z,3.00
2019-04-26T00:40:08.991Z,2.40
2019-04-26T00:41:08.975Z,2.60
2019-04-26T00:42:08.990Z,3.30
2019-04-26T00:43:08.953Z,2.50
2019-04-26T00:44:08.934Z,3.00
2019-04-26T00:45:08.925Z,3.90
2019-04-26T00:46:08.914Z,3.20
2019-04-26T00:47:08.922Z,3.70
2019-04-26T00:48:08.899Z,3.70
2019-04-26T00:49:08.886Z,3.60
2019-04-26T00:50:08.866Z,3.30
2019-04-26T00:51:08.865Z,3.90
2019-04-26T00:52:08.865Z,3.80
2019-04-26T00:53:08.839Z,3.50
2019-04-26T00:54:08.824Z,4.20
2019-04-26T00:55:08.809Z,4.00
2019-04-26T00:56:08.804Z,4.30
2019-04-26T00:57:08.865Z,4.20
2019-04-26T00:58:08.777Z,4.20
2019-04-26T00:59:08.764Z,4.40
2019-04-26T01:00:08.757Z,4.20
2019-04-26T01:01:08.752Z,4.40
2019-04-26T01:02:08.741Z,4.60
2019-04-26T01:04:19.070Z,4.60
2019-04-26T01:05:20.884Z,4.70
2019-04-26T01:06:20.912Z,5.20
2019-04-26T01:07:21.089Z,4.50
2019-04-26T01:08:20.012Z,4.80
2019-04-26T01:09:19.978Z,4.80
2019-04-26T01:10:19.961Z,5.30
2019-04-26T01:11:19.955Z,4.80
2019-04-26T01:12:19.940Z,5.70
2019-04-26T01:13:19.979Z,5.30
2019-04-26T01:14:20.030Z,5.30
2019-04-26T01:15:21.672Z,6.10
2019-04-26T01:16:20.205Z,5.10
2019-04-26T01:17:20.351Z,5.20
2019-04-26T01:18:20.211Z,5.40
2019-04-26T01:19:20.311Z,5.30
2019-04-26T01:20:20.388Z,6.10
2019-04-26T01:21:20.589Z,5.80
2019-04-26T01:22:19.840Z,5.70
2019-04-26T01:23:20.846Z,5.70
2019-04-26T01:24:19.822Z,6.00
2019-04-26T01:25:19.809Z,5.70
2019-04-26T01:26:19.799Z,5.90
2019-04-26T01:27:19.789Z,5.70
2019-04-26T01:28:19.783Z,6.50
2019-04-26T01:29:19.754Z,6.10
2019-04-26T01:30:19.765Z,6.00
2019-04-26T01:31:19.987Z,5.90
2019-04-26T01:32:20.322Z,6.20
2019-04-26T01:33:20.110Z,6.10
2019-04-26T01:34:20.346Z,6.10
2019-04-26T01:35:20.344Z,5.70
2019-04-26T01:36:20.544Z,6.60
2019-04-26T01:37:20.599Z,7.40
2019-04-26T01:38:20.720Z,6.50
2019-04-26T01:39:20.946Z,7.00
2019-04-26T01:40:20.667Z,7.00
2019-04-26T01:41:19.803Z,7.10
2019-04-26T01:42:20.886Z,7.20
2019-04-26T01:43:20.228Z,6.50
2019-04-26T01:44:20.202Z,7.20
2019-04-26T01:45:20.408Z,7.70
2019-04-26T01:46:20.638Z,7.30
2019-04-26T01:47:19.937Z,7.60
2019-04-26T01:48:19.568Z,7.70
2019-04-26T01:49:19.744Z,8.10
2019-04-26T01:50:19.529Z,8.30
2019-04-26T01:51:21.124Z,8.40
2019-04-26T01:52:19.519Z,9.40
2019-04-26T01:53:21.052Z,9.90
2019-04-26T01:54:19.490Z,9.00
2019-04-26T01:55:21.480Z,9.50
2019-04-26T01:56:19.529Z,10.40
2019-04-26T01:57:19.460Z,9.80
2019-04-26T01:58:19.459Z,9.40
2019-04-26T01:59:19.450Z,9.20
2019-04-26T02:00:19.417Z,9.90
2019-04-26T02:01:19.412Z,9.50
2019-04-26T02:02:19.391Z,10.30
2019-04-26T02:03:19.383Z,10.10
2019-04-26T02:04:19.391Z,10.20
2019-04-26T02:05:19.361Z,10.50
2019-04-26T02:06:25.294Z,10.20
2019-04-26T02:07:19.361Z,10.80
2019-04-26T02:08:19.337Z,11.00
2019-04-26T02:09:19.342Z,11.00
2019-04-26T02:10:19.305Z,11.30
2019-04-26T02:11:19.314Z,12.60
2019-04-26T02:12:19.316Z,12.30
2019-04-26T02:13:19.278Z,12.20
2019-04-26T02:14:19.283Z,12.50
2019-04-26T02:15:19.261Z,12.60
2019-04-26T02:16:19.246Z,12.30
2019-04-26T02:17:19.233Z,12.40
2019-04-26T02:18:19.236Z,12.60
2019-04-26T02:19:19.233Z,12.90
2019-04-26T02:20:19.215Z,12.50
2019-04-26T02:21:19.190Z,13.10
2019-04-26T02:22:19.184Z,13.50
2019-04-26T02:23:19.174Z,13.70
2019-04-26T02:24:19.176Z,14.80
2019-04-26T02:25:19.153Z,14.40
2019-04-26T02:26:19.141Z,13.70
2019-04-26T02:27:19.120Z,13.70
2019-04-26T02:28:19.110Z,15.30
2019-04-26T02:29:19.115Z,15.70
2019-04-26T02:30:19.100Z,16.90
2019-04-26T02:31:19.088Z,16.80
2019-04-26T02:32:19.067Z,16.50
2019-04-26T02:33:19.053Z,16.70
2019-04-26T02:34:19.072Z,17.40
2019-04-26T02:35:19.041Z,17.40
2019-04-26T02:36:19.033Z,17.00
2019-04-26T02:37:19.009Z,17.50
2019-04-26T02:38:19.000Z,18.00
2019-04-26T02:39:19.006Z,18.10
2019-04-26T02:40:18.982Z,18.50
2019-04-26T02:41:18.965Z,19.10
2019-04-26T02:42:18.968Z,18.50
2019-04-26T02:43:18.948Z,19.10
2019-04-26T02:44:21.849Z,19.20
2019-04-26T02:45:18.952Z,19.80
2019-04-26T02:46:18.918Z,20.10
2019-04-26T02:47:18.905Z,20.30
2019-04-26T02:48:18.999Z,19.70
2019-04-26T02:49:18.879Z,20.70
2019-04-26T02:50:18.900Z,21.00
2019-04-26T02:51:18.923Z,21.20
2019-04-26T02:52:18.853Z,21.10
2019-04-26T02:53:18.849Z,21.40
2019-04-26T02:54:18.834Z,22.10
2019-04-26T02:55:18.835Z,22.30
2019-04-26T02:56:18.807Z,21.40
2019-04-26T02:57:18.790Z,23.30
2019-04-26T02:58:18.785Z,22.70
2019-04-26T02:59:18.774Z,22.00
2019-04-26T03:00:18.793Z,23.50
2019-04-26T03:01:18.757Z,23.10
2019-04-26T03:02:18.737Z,23.70
2019-04-26T03:03:18.741Z,23.90
2019-04-26T03:05:28.477Z,21.70
2019-04-26T03:06:30.203Z,24.10
2019-04-26T03:07:31.462Z,24.00
2019-04-26T03:08:29.858Z,24.20
2019-04-26T03:09:31.234Z,25.30
2019-04-26T03:10:31.779Z,24.30
2019-04-26T03:11:30.547Z,24.20
2019-04-26T03:12:28.845Z,24.20
2019-04-26T03:13:28.882Z,24.60
2019-04-26T03:14:28.835Z,25.50
2019-04-26T03:15:31.471Z,24.90
2019-04-26T03:16:28.810Z,24.90
2019-04-26T03:17:30.736Z,24.50
2019-04-26T03:18:28.794Z,24.80
2019-04-26T03:19:31.472Z,25.60
2019-04-26T03:20:28.779Z,24.90
2019-04-26T03:21:28.745Z,25.70
2019-04-26T03:22:28.765Z,24.10
2019-04-26T03:23:41.579Z,24.70
2019-04-26T03:24:28.717Z,25.20
2019-04-26T03:25:28.732Z,26.90
2019-04-26T03:26:28.712Z,26.10
2019-04-26T03:27:28.697Z,25.40
2019-04-26T03:28:28.681Z,26.00
2019-04-26T03:29:28.662Z,25.90
2019-04-26T03:30:28.698Z,25.90
2019-04-26T03:31:28.652Z,24.50
2019-04-26T03:32:28.721Z,25.60
2019-04-26T03:33:28.857Z,26.00
2019-04-26T03:34:28.615Z,25.10
2019-04-26T03:35:28.628Z,24.40
2019-04-26T03:36:28.600Z,25.80
2019-04-26T03:37:28.580Z,24.80
2019-04-26T03:38:28.560Z,24.70
2019-04-26T03:39:28.588Z,25.70
2019-04-26T03:40:28.546Z,25.40
2019-04-26T03:41:28.557Z,24.70
2019-04-26T03:42:28.529Z,25.10
2019-04-26T03:43:28.518Z,24.50
2019-04-26T03:44:28.500Z,25.00
2019-04-26T03:45:28.480Z,25.00
2019-04-26T03:46:28.495Z,24.30
2019-04-26T03:47:28.487Z,24.60
2019-04-26T03:48:28.458Z,25.50
2019-04-26T03:49:28.434Z,24.70
2019-04-26T03:50:28.440Z,26.50
2019-04-26T03:51:28.437Z,25.10
2019-04-26T03:52:28.405Z,25.30
2019-04-26T03:53:28.401Z,25.40
2019-04-26T03:54:28.406Z,25.50
2019-04-26T03:55:28.395Z,25.70
2019-04-26T03:56:28.373Z,25.30
2019-04-26T03:57:28.355Z,26.30
2019-04-26T03:58:28.360Z,25.20
2019-04-26T03:59:28.321Z,25.80
2019-04-26T04:00:28.413Z,25.30
2019-04-26T04:01:28.320Z,25.70
2019-04-26T04:02:28.310Z,25.20
2019-04-26T04:03:28.284Z,26.70
2019-04-26T04:04:28.282Z,25.80
2019-04-26T04:05:28.263Z,25.60
2019-04-26T04:06:28.274Z,24.70
2019-04-26T04:07:36.672Z,25.50
2019-04-26T04:08:28.227Z,25.40
2019-04-26T04:09:28.230Z,25.10
2019-04-26T04:10:28.217Z,25.10
2019-04-26T04:11:28.284Z,26.50
2019-04-26T04:12:28.212Z,25.80
2019-04-26T04:13:28.185Z,25.90
2019-04-26T04:14:28.258Z,26.20
2019-04-26T04:15:28.162Z,25.30
2019-04-26T04:16:28.169Z,26.40
2019-04-26T04:17:28.133Z,25.60
2019-04-26T04:18:28.130Z,25.60
2019-04-26T04:19:28.125Z,24.60
2019-04-26T04:20:28.103Z,24.60
2019-04-26T04:21:28.114Z,24.30
2019-04-26T04:22:28.069Z,24.50
2019-04-26T04:23:28.071Z,24.90
2019-04-26T04:24:28.047Z,24.50
2019-04-26T04:25:28.044Z,24.90
2019-04-26T04:26:28.063Z,24.70
2019-04-26T04:27:28.027Z,24.90
2019-04-26T04:28:28.002Z,24.40
2019-04-26T04:29:40.298Z,24.60
2019-04-26T04:30:27.993Z,24.40
2019-04-26T04:31:28.029Z,23.80
2019-04-26T04:32:27.960Z,23.40
2019-04-26T04:33:27.962Z,23.60
2019-04-26T04:34:27.948Z,22.80
2019-04-26T04:35:27.936Z,23.80
2019-04-26T04:36:27.941Z,22.00
2019-04-26T04:37:27.939Z,23.70
2019-04-26T04:38:27.907Z,23.00
2019-04-26T04:39:27.898Z,23.00
2019-04-26T04:40:27.885Z,22.00
2019-04-26T04:41:27.878Z,22.30
2019-04-26T04:42:28.212Z,22.50
2019-04-26T04:43:27.984Z,21.70
2019-04-26T04:44:27.826Z,21.80
2019-04-26T04:45:27.827Z,21.10
2019-04-26T04:46:27.809Z,22.00
2019-04-26T04:47:31.068Z,21.00
2019-04-26T04:48:27.784Z,21.40
2019-04-26T04:49:27.788Z,21.70
2019-04-26T04:50:27.794Z,20.70
2019-04-26T04:51:27.753Z,20.10
2019-04-26T04:52:27.771Z,21.40
2019-04-26T04:53:27.732Z,21.10
2019-04-26T04:54:27.733Z,20.30
2019-04-26T04:55:27.713Z,21.10
2019-04-26T04:56:27.713Z,20.70
2019-04-26T04:57:27.704Z,22.30
2019-04-26T04:58:27.677Z,22.00
2019-04-26T04:59:27.672Z,21.10
2019-04-26T05:00:27.654Z,21.10
2019-04-26T05:01:27.647Z,22.60
2019-04-26T05:02:27.656Z,20.90
2019-04-26T05:03:27.628Z,22.40
2019-04-26T05:04:27.616Z,21.10
2019-04-26T05:06:37.821Z,18.20
2019-04-26T05:07:38.788Z,20.60
2019-04-26T05:08:38.757Z,20.50
2019-04-26T05:09:38.755Z,20.90
2019-04-26T05:10:38.740Z,20.70
2019-04-26T05:11:38.736Z,21.40
2019-04-26T05:12:38.740Z,20.30
2019-04-26T05:13:38.705Z,21.20
2019-04-26T05:14:38.704Z,21.00
2019-04-26T05:15:38.689Z,20.20
2019-04-26T05:16:38.678Z,20.70
2019-04-26T05:17:39.055Z,20.50
2019-04-26T05:18:38.665Z,20.70
2019-04-26T05:19:38.655Z,20.60
2019-04-26T05:20:38.634Z,20.60
2019-04-26T05:21:38.626Z,19.20
2019-04-26T05:22:38.617Z,19.40
2019-04-26T05:23:38.679Z,20.50
2019-04-26T05:24:38.585Z,19.70
2019-04-26T05:25:40.291Z,19.20
2019-04-26T05:26:38.575Z,19.60
2019-04-26T05:27:38.561Z,18.60
2019-04-26T05:28:38.576Z,18.10
2019-04-26T05:29:38.536Z,18.70
2019-04-26T05:30:38.526Z,18.50
2019-04-26T05:31:38.514Z,18.10
2019-04-26T05:32:38.508Z,18.40
2019-04-26T05:33:38.522Z,18.00
2019-04-26T05:34:38.499Z,17.40
2019-04-26T05:35:38.482Z,16.90
2019-04-26T05:36:38.481Z,16.50
2019-04-26T05:37:38.443Z,17.00
2019-04-26T05:38:38.450Z,17.20
2019-04-26T05:39:38.434Z,16.00
2019-04-26T05:40:38.431Z,16.60
2019-04-26T05:41:38.406Z,15.90
2019-04-26T05:42:38.396Z,15.90
2019-04-26T05:43:38.400Z,15.80
2019-04-26T05:44:38.377Z,14.30
2019-04-26T05:45:40.561Z,14.40
2019-04-26T05:46:38.356Z,14.20
2019-04-26T05:47:38.349Z,13.70
2019-04-26T05:48:38.347Z,13.50
2019-04-26T05:49:38.333Z,14.10
2019-04-26T05:50:38.307Z,13.90
2019-04-26T05:51:38.299Z,14.00
2019-04-26T05:52:38.295Z,13.80
2019-04-26T05:53:38.303Z,13.60
2019-04-26T05:54:38.269Z,13.40
2019-04-26T05:55:38.262Z,13.60
2019-04-26T05:56:38.259Z,12.80
2019-04-26T05:57:38.229Z,12.40
2019-04-26T05:58:38.235Z,12.80
2019-04-26T05:59:38.227Z,12.60
2019-04-26T06:00:38.208Z,12.20
2019-04-26T06:01:38.190Z,12.70
2019-04-26T06:02:38.174Z,12.60
2019-04-26T06:03:38.163Z,11.90
2019-04-26T06:04:38.173Z,12.40
2019-04-26T06:05:38.150Z,11.90
2019-04-26T06:06:38.139Z,11.60
2019-04-26T06:07:38.118Z,12.00
2019-04-26T06:08:38.115Z,11.90
2019-04-26T06:09:38.117Z,12.10
2019-04-26T06:10:38.100Z,12.10
2019-04-26T06:11:38.081Z,12.10
2019-04-26T06:12:38.077Z,11.60
2019-04-26T06:13:38.051Z,11.30
2019-04-26T06:14:38.066Z,11.10
2019-04-26T06:15:38.037Z,11.30
2019-04-26T06:16:38.021Z,11.40
2019-04-26T06:17:38.009Z,11.00
2019-04-26T06:18:38.011Z,10.80
2019-04-26T06:19:38.015Z,11.00
2019-04-26T06:20:37.986Z,10.60
2019-04-26T06:21:37.964Z,11.00
2019-04-26T06:22:37.961Z,9.80
2019-04-26T06:23:37.957Z,10.60
2019-04-26T06:24:37.946Z,11.40
2019-04-26T06:25:37.939Z,11.10
2019-04-26T06:26:37.916Z,11.00
2019-04-26T06:27:37.904Z,10.10
2019-04-26T06:28:37.902Z,11.10
2019-04-26T06:29:37.890Z,10.40
2019-04-26T06:30:45.267Z,9.70
2019-04-26T06:31:37.859Z,10.20
2019-04-26T06:32:37.945Z,10.10
2019-04-26T06:33:37.847Z,10.40
2019-04-26T06:34:37.821Z,10.60
2019-04-26T06:35:37.841Z,10.30
2019-04-26T06:36:37.815Z,9.90
2019-04-26T06:37:37.802Z,10.20
2019-04-26T06:38:43.757Z,10.10
2019-04-26T06:39:37.814Z,10.60
2019-04-26T06:40:41.996Z,10.50
2019-04-26T06:41:37.774Z,10.20
2019-04-26T06:42:37.743Z,10.50
2019-04-26T06:43:37.742Z,10.60
2019-04-26T06:44:37.734Z,9.50
2019-04-26T06:45:37.720Z,10.20
2019-04-26T06:46:38.547Z,10.30
2019-04-26T06:47:37.686Z,10.30
2019-04-26T06:48:37.675Z,10.40
2019-04-26T06:49:37.662Z,10.30
2019-04-26T06:50:37.684Z,9.90
2019-04-26T06:51:37.652Z,10.80
2019-04-26T06:52:37.660Z,10.50
2019-04-26T06:53:37.627Z,10.90
2019-04-26T06:54:37.618Z,10.50
2019-04-26T06:55:37.612Z,9.90
2019-04-26T06:56:37.592Z,10.80
2019-04-26T06:57:37.576Z,10.10
2019-04-26T06:58:37.590Z,9.60
2019-04-26T06:59:37.557Z,9.40
2019-04-26T07:00:37.564Z,9.40
2019-04-26T07:01:37.544Z,10.60
2019-04-26T07:02:37.521Z,9.70
2019-04-26T07:03:37.523Z,10.00
2019-04-26T07:04:37.504Z,9.40
2019-04-26T07:05:37.516Z,9.30
2019-04-26T07:07:46.667Z,8.50
2019-04-26T07:08:57.070Z,9.70
2019-04-26T07:09:47.647Z,9.70
2019-04-26T07:10:47.666Z,9.90
2019-04-26T07:11:47.627Z,9.30
2019-04-26T07:12:47.613Z,10.30
2019-04-26T07:13:47.598Z,9.80
2019-04-26T07:14:47.595Z,9.80
2019-04-26T07:15:47.615Z,10.40
2019-04-26T07:16:47.575Z,11.10
2019-04-26T07:17:47.558Z,10.60
2019-04-26T07:18:47.548Z,11.30
2019-04-26T07:19:47.540Z,11.20
2019-04-26T07:20:47.539Z,11.00
2019-04-26T07:21:47.523Z,11.50
2019-04-26T07:22:47.495Z,12.30
2019-04-26T07:23:47.486Z,11.70
2019-04-26T07:24:47.480Z,11.70
2019-04-26T07:25:47.458Z,11.80
2019-04-26T07:26:47.469Z,11.80
2019-04-26T07:27:47.459Z,12.60
2019-04-26T07:28:47.427Z,12.20
2019-04-26T07:29:47.429Z,12.90
2019-04-26T07:30:47.405Z,13.60
2019-04-26T07:31:47.428Z,12.70
2019-04-26T07:32:47.399Z,12.10
2019-04-26T07:33:47.386Z,12.90
2019-04-26T07:34:47.366Z,12.80
2019-04-26T07:35:47.361Z,12.60
2019-04-26T07:36:47.358Z,13.10
2019-04-26T07:37:47.344Z,12.50
2019-04-26T07:38:47.324Z,12.90
2019-04-26T07:39:47.314Z,12.40
2019-04-26T07:40:47.302Z,12.80
2019-04-26T07:41:47.310Z,12.80
2019-04-26T07:42:47.295Z,12.40
2019-04-26T07:43:47.272Z,12.50
2019-04-26T07:44:47.254Z,12.60
2019-04-26T07:45:47.242Z,12.30
2019-04-26T07:46:47.254Z,12.30
2019-04-26T07:47:47.255Z,12.40
2019-04-26T07:48:47.225Z,12.60
2019-04-26T07:49:47.202Z,12.60
2019-04-26T07:50:47.213Z,12.90
2019-04-26T07:51:47.222Z,12.70
2019-04-26T07:52:47.176Z,12.80
2019-04-26T07:53:47.164Z,12.90
2019-04-26T07:54:47.153Z,13.10
2019-04-26T07:55:47.145Z,12.50
2019-04-26T07:56:47.138Z,12.70
2019-04-26T07:57:47.130Z,13.10
2019-04-26T07:58:47.101Z,12.90
2019-04-26T07:59:47.105Z,13.80
2019-04-26T08:00:47.085Z,13.60
2019-04-26T08:01:47.080Z,12.40
2019-04-26T08:02:47.076Z,13.80
2019-04-26T08:03:47.051Z,14.30
2019-04-26T08:04:47.056Z,14.40
2019-04-26T08:05:47.051Z,14.80
2019-04-26T08:06:47.015Z,14.70
2019-04-26T08:07:47.033Z,15.20
2019-04-26T08:08:47.011Z,15.60
2019-04-26T08:09:59.143Z,15.60
2019-04-26T08:10:46.972Z,16.40
2019-04-26T08:11:46.972Z,16.60
2019-04-26T08:12:46.979Z,16.10
2019-04-26T08:13:46.937Z,16.20
2019-04-26T08:14:46.949Z,15.90
2019-04-26T08:15:46.920Z,16.40
2019-04-26T08:16:46.910Z,16.70
2019-04-26T08:17:46.913Z,16.20
2019-04-26T08:18:46.898Z,17.00
2019-04-26T08:19:46.873Z,16.90
2019-04-26T08:20:48.351Z,16.50
2019-04-26T08:21:48.196Z,16.60
2019-04-26T08:22:46.869Z,17.10
2019-04-26T08:23:46.849Z,16.20
2019-04-26T08:24:46.842Z,16.60
2019-04-26T08:25:46.820Z,17.40
2019-04-26T08:26:46.834Z,17.50
2019-04-26T08:27:47.093Z,19.10
2019-04-26T08:28:46.784Z,19.80
2019-04-26T08:29:46.773Z,19.30
2019-04-26T08:30:46.770Z,19.50
2019-04-26T08:31:46.741Z,20.60
2019-04-26T08:32:46.836Z,19.00
2019-04-26T08:33:48.856Z,20.00
2019-04-26T08:34:46.715Z,19.80
2019-04-26T08:35:48.952Z,20.10
2019-04-26T08:36:46.698Z,21.00
2019-04-26T08:37:46.695Z,20.60
2019-04-26T08:38:48.766Z,20.60
2019-04-26T08:39:50.433Z,21.40
2019-04-26T08:40:46.663Z,21.30
2019-04-26T08:41:46.643Z,20.10
2019-04-26T08:42:46.640Z,19.80
2019-04-26T08:43:46.611Z,23.80
2019-04-26T08:44:46.605Z,21.20
2019-04-26T08:46:01.881Z,20.10
2019-04-26T08:46:46.594Z,21.30
2019-04-26T08:47:50.273Z,20.50
2019-04-26T08:48:46.578Z,26.30
2019-04-26T08:49:46.553Z,24.10
2019-04-26T08:50:47.021Z,21.20
2019-04-26T08:51:46.580Z,20.90
2019-04-26T08:52:46.540Z,21.30
2019-04-26T08:53:46.546Z,20.20
2019-04-26T08:54:46.513Z,23.40
2019-04-26T08:55:46.498Z,24.40
2019-04-26T08:56:46.465Z,20.80
2019-04-26T08:57:46.474Z,22.30
2019-04-26T08:58:46.478Z,21.70
2019-04-26T08:59:46.452Z,21.10
2019-04-26T09:00:46.430Z,19.30
2019-04-26T09:01:46.623Z,20.60
2019-04-26T09:02:46.415Z,20.60
2019-04-26T09:03:46.412Z,20.00
2019-04-26T09:04:46.397Z,18.70
2019-04-26T09:05:49.950Z,19.10
2019-04-26T09:06:46.384Z,22.20
2019-04-26T09:08:55.867Z,18.20
2019-04-26T09:10:01.158Z,18.00
2019-04-26T09:10:56.818Z,19.70
2019-04-26T09:11:59.929Z,18.90
2019-04-26T09:12:56.795Z,18.30
2019-04-26T09:13:56.805Z,20.60
2019-04-26T09:14:56.782Z,17.40
2019-04-26T09:15:56.847Z,17.70
2019-04-26T09:16:56.759Z,18.20
2019-04-26T09:17:56.753Z,19.20
2019-04-26T09:18:59.551Z,18.10
2019-04-26T09:19:58.210Z,16.90
2019-04-26T09:20:56.712Z,16.70
2019-04-26T09:21:59.051Z,16.90
2019-04-26T09:23:03.739Z,16.60
2019-04-26T09:23:56.690Z,16.30
2019-04-26T09:24:59.456Z,19.00
2019-04-26T09:26:00.345Z,16.80
2019-04-26T09:26:56.655Z,16.20
2019-04-26T09:27:58.862Z,15.60
2019-04-26T09:28:57.557Z,16.00
2019-04-26T09:29:56.637Z,15.60
2019-04-26T09:30:56.607Z,14.10
2019-04-26T09:31:56.601Z,13.80
2019-04-26T09:32:58.249Z,13.70
2019-04-26T09:33:56.569Z,12.90
2019-04-26T09:34:56.823Z,12.50
2019-04-26T09:35:56.547Z,12.60
2019-04-26T09:36:56.538Z,14.50
2019-04-26T09:37:56.527Z,13.60
2019-04-26T09:38:56.516Z,14.80
2019-04-26T09:39:56.517Z,14.20
2019-04-26T09:40:57.307Z,14.00
2019-04-26T09:41:56.470Z,14.80
2019-04-26T09:42:56.554Z,15.60
2019-04-26T09:43:58.881Z,16.90
2019-04-26T09:44:56.972Z,14.20
2019-04-26T09:45:56.426Z,14.80
2019-04-26T09:46:56.415Z,16.30
2019-04-26T09:47:56.425Z,15.40
2019-04-26T09:48:56.406Z,15.60
2019-04-26T09:49:56.411Z,14.30
2019-04-26T09:50:56.374Z,14.30
2019-04-26T09:51:56.374Z,15.50
2019-04-26T09:52:58.243Z,15.10
2019-04-26T09:53:56.352Z,15.20
2019-04-26T09:54:56.383Z,13.60
2019-04-26T09:55:56.350Z,15.10
2019-04-26T09:56:56.334Z,14.60
2019-04-26T09:57:57.093Z,15.20
2019-04-26T09:58:56.305Z,16.30
2019-04-26T09:59:56.309Z,16.20
2019-04-26T10:00:56.284Z,17.20
2019-04-26T10:01:59.393Z,16.90
2019-04-26T10:02:56.255Z,16.80
2019-04-26T10:03:56.244Z,17.80
2019-04-26T10:04:56.269Z,17.80
2019-04-26T10:05:57.103Z,19.50
2019-04-26T10:06:59.436Z,18.40
2019-04-26T10:07:56.202Z,18.90
2019-04-26T10:08:56.190Z,18.40
2019-04-26T10:10:00.656Z,18.10
2019-04-26T10:10:56.174Z,17.40
2019-04-26T10:11:56.156Z,18.70
2019-04-26T10:12:56.141Z,20.10
2019-04-26T10:13:56.158Z,20.60
2019-04-26T10:14:56.124Z,20.90
2019-04-26T10:15:58.079Z,21.10
2019-04-26T10:16:56.116Z,20.40
2019-04-26T10:17:56.108Z,22.20
2019-04-26T10:18:58.309Z,21.60
2019-04-26T10:19:56.072Z,21.80
2019-04-26T10:20:56.074Z,22.30
2019-04-26T10:21:56.042Z,21.80
2019-04-26T10:22:56.044Z,21.20
2019-04-26T10:23:56.019Z,22.10
2019-04-26T10:24:56.025Z,22.10
2019-04-26T10:25:56.032Z,21.80
2019-04-26T10:26:59.211Z,22.90
2019-04-26T10:27:55.984Z,23.20
2019-04-26T10:28:55.964Z,21.70
2019-04-26T10:30:04.695Z,22.00
2019-04-26T10:30:55.967Z,23.20
2019-04-26T10:31:55.930Z,25.30
2019-04-26T10:32:58.358Z,23.30
2019-04-26T10:33:55.922Z,21.50
2019-04-26T10:34:55.903Z,22.80
2019-04-26T10:35:56.813Z,24.10
2019-04-26T10:36:57.123Z,24.00
2019-04-26T10:37:55.866Z,23.70
2019-04-26T10:38:58.410Z,24.00
2019-04-26T10:39:55.844Z,24.70
2019-04-26T10:40:56.325Z,25.50
2019-04-26T10:41:55.819Z,26.20
2019-04-26T10:42:55.816Z,25.10
2019-04-26T10:43:55.797Z,25.70
2019-04-26T10:44:55.804Z,27.10
2019-04-26T10:45:55.815Z,27.80
2019-04-26T10:46:55.976Z,26.30
2019-04-26T10:47:55.756Z,26.00
2019-04-26T10:49:02.668Z,27.10
2019-04-26T10:49:58.179Z,27.20
2019-04-26T10:50:55.754Z,28.70
2019-04-26T10:51:55.747Z,28.50
2019-04-26T10:52:55.800Z,27.70
2019-04-26T10:53:55.684Z,29.70
2019-04-26T10:54:55.671Z,29.30
2019-04-26T10:55:55.673Z,29.30
2019-04-26T10:56:55.690Z,31.80
2019-04-26T10:57:55.675Z,32.30
2019-04-26T10:58:55.637Z,33.10
2019-04-26T10:59:55.625Z,33.10
2019-04-26T11:00:55.620Z,35.90
2019-04-26T11:01:55.642Z,36.30
2019-04-26T11:02:55.587Z,35.70
2019-04-26T11:03:55.579Z,36.10
2019-04-26T11:04:55.573Z,35.40
2019-04-26T11:05:55.563Z,37.50
2019-04-26T11:06:58.151Z,39.10
2019-04-26T11:07:55.558Z,36.80
2019-04-26T11:10:04.766Z,38.20
2019-04-26T11:11:05.740Z,41.20
2019-04-26T11:12:05.738Z,42.70
2019-04-26T11:13:05.735Z,42.70
2019-04-26T11:14:05.710Z,43.20
2019-04-26T11:15:06.277Z,43.00
2019-04-26T11:16:07.229Z,41.40
2019-04-26T11:17:05.685Z,44.20
2019-04-26T11:18:05.663Z,43.40
2019-04-26T11:19:05.650Z,44.50
2019-04-26T11:20:06.300Z,43.30
2019-04-26T11:21:05.635Z,44.90
2019-04-26T11:22:05.659Z,45.10
2019-04-26T11:23:08.241Z,45.40
2019-04-26T11:24:05.600Z,46.10
2019-04-26T11:25:05.589Z,45.80
2019-04-26T11:26:05.650Z,46.50
2019-04-26T11:27:09.658Z,46.40
2019-04-26T11:28:05.555Z,47.00
2019-04-26T11:29:05.532Z,48.10
2019-04-26T11:30:11.880Z,47.70
2019-04-26T11:31:05.558Z,47.00
2019-04-26T11:32:05.564Z,47.90
2019-04-26T11:33:07.179Z,49.90
2019-04-26T11:34:05.849Z,48.80
2019-04-26T11:35:05.486Z,48.00
2019-04-26T11:36:07.356Z,47.90
2019-04-26T11:37:05.484Z,48.10
2019-04-26T11:38:05.441Z,47.40
2019-04-26T11:39:07.308Z,47.80
2019-04-26T11:40:05.430Z,47.10
2019-04-26T11:41:06.826Z,46.80
2019-04-26T11:42:08.072Z,46.00
2019-04-26T11:43:05.386Z,45.80
2019-04-26T11:44:05.380Z,46.30
2019-04-26T11:45:06.327Z,46.40
2019-04-26T11:46:05.477Z,46.30
2019-04-26T11:47:07.768Z,47.50
2019-04-26T11:48:05.342Z,47.70
2019-04-26T11:49:07.185Z,47.60
2019-04-26T11:50:05.356Z,47.50
2019-04-26T11:51:05.296Z,46.30
2019-04-26T11:52:05.318Z,46.50
2019-04-26T11:53:06.139Z,47.50
2019-04-26T11:54:05.267Z,46.70
2019-04-26T11:55:05.266Z,47.10
2019-04-26T11:56:05.819Z,47.40
2019-04-26T11:57:08.152Z,44.90
2019-04-26T11:58:05.239Z,45.30
2019-04-26T11:59:05.210Z,46.40
2019-04-26T12:00:06.535Z,45.10
2019-04-26T12:01:05.227Z,44.80
2019-04-26T12:02:05.197Z,45.50
2019-04-26T12:03:05.228Z,45.70
2019-04-26T12:04:07.215Z,43.90
2019-04-26T12:05:05.144Z,45.40
2019-04-26T12:06:05.137Z,45.40
2019-04-26T12:07:05.122Z,45.30
2019-04-26T12:08:05.158Z,45.50
2019-04-26T12:09:05.144Z,44.40
2019-04-26T12:10:05.797Z,45.60
2019-04-26T12:11:05.085Z,44.80
2019-04-26T12:12:08.835Z,45.80
2019-04-26T12:13:06.205Z,46.20
2019-04-26T12:14:05.096Z,43.30
2019-04-26T12:15:08.571Z,44.30
2019-04-26T12:16:05.038Z,44.20
2019-04-26T12:17:05.019Z,45.10
2019-04-26T12:18:05.714Z,45.00
2019-04-26T12:19:04.995Z,43.80
2019-04-26T12:20:04.986Z,43.90
2019-04-26T12:21:04.977Z,44.90
2019-04-26T12:22:08.356Z,45.40
2019-04-26T12:23:04.968Z,46.50
2019-04-26T12:24:04.949Z,45.40
2019-04-26T12:25:07.200Z,43.30
2019-04-26T12:26:04.937Z,45.10
2019-04-26T12:27:04.974Z,44.80
2019-04-26T12:28:05.967Z,44.40
2019-04-26T12:29:04.890Z,44.00
2019-04-26T12:30:04.875Z,44.80
2019-04-26T12:31:04.894Z,42.60
2019-04-26T12:32:04.846Z,42.10
2019-04-26T12:33:04.864Z,42.50
2019-04-26T12:34:04.811Z,42.70
2019-04-26T12:35:04.820Z,42.70
2019-04-26T12:36:04.789Z,42.30
2019-04-26T12:37:04.804Z,41.60
2019-04-26T12:38:04.873Z,41.60
2019-04-26T12:39:04.773Z,41.70
2019-04-26T12:40:07.179Z,40.30
2019-04-26T12:41:04.765Z,40.70
2019-04-26T12:42:08.297Z,42.10
2019-04-26T12:43:04.764Z,42.90
2019-04-26T12:44:04.756Z,41.30
2019-04-26T12:45:04.747Z,41.10
2019-04-26T12:46:04.704Z,40.10
2019-04-26T12:47:05.207Z,39.10
2019-04-26T12:48:04.673Z,39.40
2019-04-26T12:49:04.714Z,39.70
2019-04-26T12:50:04.698Z,39.00
2019-04-26T12:51:08.244Z,41.40
2019-04-26T12:52:04.622Z,39.70
2019-04-26T12:53:04.620Z,39.50
2019-04-26T12:54:08.199Z,39.40
2019-04-26T12:55:04.598Z,39.80
2019-04-26T12:56:04.609Z,39.80
2019-04-26T12:57:05.945Z,39.70
2019-04-26T12:58:04.596Z,40.80
2019-04-26T12:59:04.576Z,38.30
2019-04-26T13:00:04.590Z,38.90
2019-04-26T13:01:07.889Z,39.10
2019-04-26T13:02:05.711Z,40.20
2019-04-26T13:03:04.506Z,40.00
2019-04-26T13:04:04.548Z,40.60